Time;durP1;ratioP1;P1;durP2;ratioP2;P2;SDS_P1;SDS_P2;PMS_P1;PMS_P2;Temp;Humidity;BMP_temperature;BMP_pressure;BME280_temperature;BME280_humidity;BME280_pressure;Samples;Min_cycle;Max_cycle;Signal;HPM_P1;HPM_P2
2024/03/18 00:01:06;;;;;;;9.30;6.80;;;2.00;1.00;;;;;;5091420;27;20235;-73
2024/03/18 00:03:35;;;;;;;9.70;6.68;;;2.00;1.00;;;;;;5087339;28;20236;-71
2024/03/18 00:06:02;;;;;;;12.07;7.97;;;1.90;1.00;;;;;;5087951;28;20711;-71
2024/03/18 00:08:29;;;;;;;11.82;6.45;;;1.90;1.00;;;;;;5084371;28;20240;-71
2024/03/18 00:10:56;;;;;;;11.20;7.05;;;1.90;1.00;;;;;;5097018;27;20385;-72
2024/03/18 00:13:23;;;;;;;8.52;6.40;;;1.80;1.00;;;;;;5087464;28;20330;-71
2024/03/18 00:15:50;;;;;;;9.60;6.88;;;1.90;1.00;;;;;;5082291;28;20371;-71
2024/03/18 00:18:16;;;;;;;9.10;6.80;;;1.80;1.00;;;;;;5087675;28;20723;-72
2024/03/18 00:20:47;;;;;;;10.60;7.10;;;1.80;1.00;;;;;;5084489;28;20246;-70
2024/03/18 00:23:14;;;;;;;11.13;7.43;;;1.80;1.00;;;;;;5085861;28;20323;-72
2024/03/18 00:25:41;;;;;;;13.20;8.30;;;1.80;1.00;;;;;;5081930;28;20263;-69
2024/03/18 00:28:10;;;;;;;9.60;7.38;;;1.70;1.00;;;;;;5092502;27;21134;-70
2024/03/18 00:30:36;;;;;;;10.48;6.97;;;1.70;1.00;;;;;;5083706;28;21043;-73
2024/03/18 00:33:03;;;;;;;10.18;6.63;;;1.70;1.00;;;;;;5087621;28;20822;-70
2024/03/18 00:35:30;;;;;;;13.73;7.50;;;1.60;1.00;;;;;;5102371;27;20228;-74
2024/03/18 00:37:59;;;;;;;10.52;5.90;;;1.60;1.00;;;;;;5096194;27;20326;-71
2024/03/18 00:40:26;;;;;;;10.52;6.55;;;1.60;1.00;;;;;;5088002;28;20240;-71
2024/03/18 00:42:52;;;;;;;9.48;6.35;;;1.50;1.00;;;;;;5086183;28;20232;-73
2024/03/18 00:45:19;;;;;;;10.53;6.77;;;1.50;1.00;;;;;;5081196;27;21494;-72
2024/03/18 00:47:46;;;;;;;7.90;6.25;;;1.50;1.00;;;;;;5107428;27;20565;-73
2024/03/18 00:50:13;;;;;;;8.07;5.68;;;1.50;1.00;;;;;;5107216;27;20285;-70
2024/03/18 00:52:40;;;;;;;6.68;5.32;;;1.40;1.00;;;;;;5102867;27;20263;-73
2024/03/18 00:55:10;;;;;;;9.85;6.07;;;1.40;1.00;;;;;;5082867;28;20233;-71
2024/03/18 00:57:37;;;;;;;9.27;5.78;;;1.30;1.00;;;;;;5089117;28;22149;-71
2024/03/18 01:00:06;;;;;;;6.82;4.60;;;1.30;1.00;;;;;;5093019;27;20264;-70
2024/03/18 01:02:33;;;;;;;9.68;6.10;;;1.30;1.00;;;;;;5087345;28;20692;-71
2024/03/18 01:05:00;;;;;;;10.30;6.82;;;1.30;1.00;;;;;;5089717;28;20235;-71
2024/03/18 01:07:27;;;;;;;7.38;5.00;;;1.30;1.00;;;;;;5097482;27;20235;-69
2024/03/18 01:09:54;;;;;;;8.40;6.03;;;1.30;1.00;;;;;;5087989;28;20239;-72
2024/03/18 01:12:22;;;;;;;7.97;5.30;;;1.20;1.00;;;;;;5093228;27;20231;-72
2024/03/18 01:14:49;;;;;;;8.52;5.35;;;1.20;1.00;;;;;;5094140;27;20330;-73
2024/03/18 01:17:16;;;;;;;6.63;5.07;;;1.20;1.00;;;;;;5097412;27;20235;-74
2024/03/18 01:19:43;;;;;;;9.18;5.25;;;1.10;1.00;;;;;;5089668;28;20240;-72
2024/03/18 01:22:10;;;;;;;7.35;6.10;;;1.10;1.00;;;;;;5086289;28;20247;-73
2024/03/18 01:24:37;;;;;;;7.50;5.47;;;1.10;1.00;;;;;;5088643;28;21909;-71
2024/03/18 01:27:04;;;;;;;7.53;5.88;;;1.10;1.00;;;;;;5088737;28;20240;-71
2024/03/18 01:29:33;;;;;;;8.40;5.10;;;1.10;1.00;;;;;;5087408;27;20711;-72
2024/03/18 01:31:59;;;;;;;6.88;5.10;;;1.00;1.00;;;;;;5107628;27;20322;-72
2024/03/18 01:34:26;;;;;;;8.45;5.80;;;1.00;1.00;;;;;;5092617;27;20308;-71
2024/03/18 01:36:53;;;;;;;6.47;5.13;;;1.00;1.00;;;;;;5084057;28;20319;-71
2024/03/18 01:39:20;;;;;;;10.85;6.65;;;1.00;1.00;;;;;;5087022;28;20348;-73
2024/03/18 01:41:48;;;;;;;5.68;4.63;;;1.00;1.00;;;;;;5103349;27;20238;-72
2024/03/18 01:44:15;;;;;;;6.85;4.78;;;1.00;1.00;;;;;;5106364;27;21036;-72
2024/03/18 01:46:43;;;;;;;6.90;4.80;;;1.00;1.00;;;;;;5109551;27;20270;-74
2024/03/18 01:49:10;;;;;;;6.50;5.35;;;1.00;1.00;;;;;;5104950;27;20317;-72
2024/03/18 01:51:37;;;;;;;7.78;4.88;;;1.00;1.00;;;;;;5111300;27;20266;-75
2024/03/18 01:54:05;;;;;;;7.55;5.38;;;1.10;1.00;;;;;;5108397;27;20235;-71
2024/03/18 01:56:32;;;;;;;7.90;5.18;;;1.10;1.00;;;;;;5094784;27;20539;-71
2024/03/18 01:59:05;;;;;;;7.90;5.80;;;1.10;1.00;;;;;;5086495;28;20236;-71
2024/03/18 02:01:32;;;;;;;8.30;6.00;;;1.10;1.00;;;;;;5089479;28;20743;-72
2024/03/18 02:04:09;;;;;;;7.60;5.35;;;1.00;1.00;;;;;;5089428;28;20330;-73
2024/03/18 02:06:38;;;;;;;7.00;5.15;;;1.00;1.00;;;;;;5090267;28;20246;-71
2024/03/18 02:09:05;;;;;;;5.70;4.80;;;0.90;1.00;;;;;;5089058;28;20244;-72
2024/03/18 02:11:32;;;;;;;7.65;5.47;;;0.80;1.00;;;;;;5099175;27;20246;-72
2024/03/18 02:13:59;;;;;;;7.28;5.40;;;0.90;1.00;;;;;;5107706;27;20239;-75
2024/03/18 02:16:28;;;;;;;7.97;4.93;;;0.80;1.00;;;;;;5102963;27;20315;-74
2024/03/18 02:18:55;;;;;;;9.80;6.13;;;0.80;1.00;;;;;;5107981;27;20749;-71
2024/03/18 02:21:23;;;;;;;10.32;5.00;;;0.70;1.00;;;;;;5105634;27;20308;-74
2024/03/18 02:23:51;;;;;;;7.25;5.68;;;0.70;1.00;;;;;;5086821;28;20232;-75
2024/03/18 02:26:18;;;;;;;7.30;4.78;;;0.70;1.00;;;;;;5091959;27;20236;-76
2024/03/18 02:28:46;;;;;;;7.60;4.30;;;0.60;1.00;;;;;;5089207;27;20300;-75
2024/03/18 02:31:14;;;;;;;7.30;4.82;;;0.60;1.00;;;;;;5088014;28;20232;-74
2024/03/18 02:33:41;;;;;;;7.72;6.38;;;0.60;1.00;;;;;;5087064;28;20232;-75
2024/03/18 02:36:08;;;;;;;6.20;4.47;;;0.60;1.00;;;;;;5087258;27;20240;-76
2024/03/18 02:38:35;;;;;;;5.57;4.85;;;0.60;1.00;;;;;;5084798;28;20753;-74
2024/03/18 02:41:04;;;;;;;10.38;6.15;;;0.60;1.00;;;;;;5087302;28;20297;-76
2024/03/18 02:43:31;;;;;;;9.07;5.10;;;0.60;1.00;;;;;;5087769;28;20349;-76
2024/03/18 02:45:58;;;;;;;6.82;5.15;;;0.60;1.00;;;;;;5089406;27;20246;-74
2024/03/18 02:48:25;;;;;;;7.18;4.78;;;0.60;1.00;;;;;;5110940;27;20235;-75
2024/03/18 02:50:52;;;;;;;7.20;4.97;;;0.60;1.00;;;;;;5110446;27;20334;-75
2024/03/18 02:53:19;;;;;;;7.43;4.70;;;0.60;1.00;;;;;;5105681;27;21065;-75
2024/03/18 02:55:46;;;;;;;7.82;5.25;;;0.50;1.00;;;;;;5113820;27;20224;-74
2024/03/18 02:58:14;;;;;;;6.43;5.20;;;0.50;1.00;;;;;;5090164;28;20264;-74
2024/03/18 03:00:41;;;;;;;7.28;4.80;;;0.50;1.00;;;;;;5091953;27;21049;-75
2024/03/18 03:03:08;;;;;;;8.32;5.13;;;0.50;1.00;;;;;;5086698;28;20243;-74
2024/03/18 03:05:35;;;;;;;7.80;4.95;;;0.50;1.00;;;;;;5091299;27;20239;-73
2024/03/18 03:08:02;;;;;;;7.05;4.95;;;0.40;1.00;;;;;;5106853;27;20235;-75
2024/03/18 03:10:29;;;;;;;6.55;4.90;;;0.40;1.00;;;;;;5108176;27;20273;-75
2024/03/18 03:12:56;;;;;;;6.80;4.80;;;0.40;1.00;;;;;;5107629;27;20242;-76
2024/03/18 03:15:24;;;;;;;6.18;4.57;;;0.40;1.00;;;;;;5099689;27;20243;-76
2024/03/18 03:17:51;;;;;;;5.68;4.50;;;0.40;1.00;;;;;;5102317;27;20242;-75
2024/03/18 03:20:30;;;;;;;5.60;4.40;;;0.40;1.00;;;;;;5098436;27;20330;-76
2024/03/18 03:22:57;;;;;;;6.68;5.13;;;0.30;1.00;;;;;;5091002;27;20268;-73
2024/03/18 03:25:26;;;;;;;5.07;4.03;;;0.30;1.00;;;;;;5083185;27;20236;-75
2024/03/18 03:27:57;;;;;;;5.45;3.80;;;0.30;1.00;;;;;;5090063;28;20959;-77
2024/03/18 03:30:25;;;;;;;5.32;4.13;;;0.20;1.00;;;;;;5099691;27;20235;-74
2024/03/18 03:32:52;;;;;;;5.35;4.53;;;0.20;1.00;;;;;;5093540;28;20240;-75
2024/03/18 03:35:19;;;;;;;5.97;4.07;;;0.20;1.00;;;;;;5088169;28;21099;-73
2024/03/18 03:37:46;;;;;;;13.20;11.98;;;0.20;1.00;;;;;;5091020;27;20236;-75
2024/03/18 03:40:16;;;;;;;5.65;3.58;;;0.20;1.00;;;;;;5087678;28;20270;-72
2024/03/18 03:42:43;;;;;;;6.50;4.53;;;0.20;1.00;;;;;;5093612;27;21478;-75
2024/03/18 03:45:10;;;;;;;4.15;3.80;;;0.20;1.00;;;;;;5095836;27;20354;-75
2024/03/18 03:47:39;;;;;;;8.02;4.10;;;0.10;1.00;;;;;;5093244;27;20330;-76
2024/03/18 03:50:07;;;;;;;4.20;3.80;;;0.10;1.00;;;;;;5092414;27;20239;-74
2024/03/18 03:52:34;;;;;;;5.80;4.15;;;0.10;1.00;;;;;;5089667;28;20739;-74
2024/03/18 03:55:01;;;;;;;5.80;4.35;;;0.10;1.00;;;;;;5089899;28;20240;-74
2024/03/18 03:57:28;;;;;;;6.35;3.95;;;0.00;1.00;;;;;;5090922;28;20355;-74
2024/03/18 03:59:57;;;;;;;7.55;3.67;;;0.10;1.00;;;;;;5088042;28;20318;-75
2024/03/18 04:02:24;;;;;;;5.47;4.30;;;0.10;1.00;;;;;;5099753;27;20239;-75
2024/03/18 04:04:52;;;;;;;4.50;3.83;;;0.10;1.00;;;;;;5112516;27;20261;-76
2024/03/18 04:07:23;;;;;;;5.57;4.20;;;0.00;1.00;;;;;;5109046;27;20613;-75
2024/03/18 04:09:51;;;;;;;6.00;4.03;;;0.00;1.00;;;;;;5111232;27;21042;-75
2024/03/18 04:12:18;;;;;;;5.25;3.83;;;0.00;1.00;;;;;;5098145;27;20722;-75
2024/03/18 04:14:45;;;;;;;3.95;3.55;;;0.00;1.00;;;;;;5083297;28;20232;-75
2024/03/18 04:17:12;;;;;;;5.95;3.78;;;0.10;1.00;;;;;;5086742;28;20746;-75
2024/03/18 04:19:40;;;;;;;8.05;4.50;;;0.10;1.00;;;;;;5086269;28;20231;-75
2024/03/18 04:22:09;;;;;;;4.30;3.53;;;0.10;1.00;;;;;;5090763;28;21051;-74
2024/03/18 04:24:36;;;;;;;3.92;3.17;;;0.00;1.00;;;;;;5100193;27;20619;-74
2024/03/18 04:27:05;;;;;;;8.13;5.45;;;0.10;1.00;;;;;;5088558;28;20350;-73
2024/03/18 04:29:32;;;;;;;5.40;4.35;;;0.10;1.00;;;;;;5087484;27;20242;-74
2024/03/18 04:31:59;;;;;;;6.35;3.55;;;0.00;1.00;;;;;;5087019;28;20323;-74
2024/03/18 04:34:27;;;;;;;6.38;3.80;;;0.00;1.00;;;;;;5089222;27;20292;-74
2024/03/18 04:36:54;;;;;;;4.85;4.35;;;0.00;1.00;;;;;;5092116;27;20241;-75
2024/03/18 04:39:22;;;;;;;4.70;3.60;;;0.00;1.00;;;;;;5087011;28;20350;-74
2024/03/18 04:41:49;;;;;;;5.03;3.85;;;0.00;1.00;;;;;;5085760;28;20232;-74
2024/03/18 04:44:16;;;;;;;6.00;3.72;;;-0.10;1.00;;;;;;5107554;27;21560;-75
2024/03/18 04:46:43;;;;;;;7.40;4.35;;;0.00;1.00;;;;;;5094176;27;20291;-73
2024/03/18 04:49:10;;;;;;;4.82;3.97;;;0.10;1.00;;;;;;5082496;28;21057;-74
2024/03/18 04:51:37;;;;;;;5.40;4.30;;;0.10;1.00;;;;;;5088139;28;20796;-76
2024/03/18 04:54:04;;;;;;;5.68;3.75;;;0.00;1.00;;;;;;5086186;28;21083;-75
2024/03/18 04:56:33;;;;;;;4.75;4.07;;;0.00;1.00;;;;;;5084859;28;20295;-75
2024/03/18 04:58:59;;;;;;;5.40;4.47;;;-0.10;1.00;;;;;;5092172;28;20290;-75
2024/03/18 05:01:27;;;;;;;4.95;4.53;;;-0.10;1.00;;;;;;5084321;28;20236;-75
2024/03/18 05:03:54;;;;;;;6.25;4.57;;;-0.10;1.00;;;;;;5082480;28;20959;-74
2024/03/18 05:06:21;;;;;;;7.72;3.78;;;-0.10;1.00;;;;;;5095211;27;20231;-76
2024/03/18 05:08:48;;;;;;;3.83;3.47;;;-0.10;1.00;;;;;;5107703;27;20304;-75
2024/03/18 05:11:15;;;;;;;5.70;4.40;;;0.00;1.00;;;;;;5101269;27;20288;-75
2024/03/18 05:13:44;;;;;;;7.65;3.95;;;0.00;1.00;;;;;;5085906;27;20232;-75
2024/03/18 05:16:11;;;;;;;6.15;4.40;;;0.10;1.00;;;;;;5085884;28;20244;-74
2024/03/18 05:18:38;;;;;;;7.97;4.45;;;0.00;1.00;;;;;;5088337;28;20827;-75
2024/03/18 05:21:06;;;;;;;8.02;5.72;;;0.10;1.00;;;;;;5087950;27;20236;-73
2024/03/18 05:23:33;;;;;;;5.15;4.38;;;0.10;1.00;;;;;;5100224;27;20231;-76
2024/03/18 05:26:00;;;;;;;5.88;4.30;;;0.10;1.00;;;;;;5111380;27;20333;-74
2024/03/18 05:28:27;;;;;;;8.85;4.65;;;0.20;1.00;;;;;;5104076;27;20278;-75
2024/03/18 05:30:56;;;;;;;6.20;3.95;;;0.20;1.00;;;;;;5085427;28;20300;-75
2024/03/18 05:33:23;;;;;;;4.95;4.45;;;0.20;1.00;;;;;;5092548;28;20264;-73
2024/03/18 05:35:50;;;;;;;7.78;4.20;;;0.20;1.00;;;;;;5097251;27;20923;-74
2024/03/18 05:38:18;;;;;;;8.50;5.20;;;0.20;1.00;;;;;;5093129;28;20339;-74
2024/03/18 05:40:45;;;;;;;5.55;4.18;;;0.20;1.00;;;;;;5089336;28;20236;-73
2024/03/18 05:43:11;;;;;;;7.47;5.88;;;0.20;1.00;;;;;;5090770;28;20240;-73
2024/03/18 05:45:38;;;;;;;9.63;4.20;;;0.30;1.00;;;;;;5092160;28;20319;-72
2024/03/18 05:48:08;;;;;;;6.88;4.63;;;0.40;1.00;;;;;;5093835;28;20236;-75
2024/03/18 05:50:35;;;;;;;8.52;4.07;;;0.40;1.00;;;;;;5088588;28;21085;-73
2024/03/18 05:53:03;;;;;;;7.03;4.10;;;0.50;1.00;;;;;;5093076;28;20355;-71
2024/03/18 05:55:30;;;;;;;4.63;4.10;;;0.60;1.00;;;;;;5095612;27;20236;-70
2024/03/18 05:58:02;;;;;;;4.70;4.10;;;0.70;1.00;;;;;;5105884;27;20228;-71
2024/03/18 06:00:29;;;;;;;6.65;4.65;;;0.60;1.00;;;;;;5111464;27;20293;-72
2024/03/18 06:02:56;;;;;;;6.95;4.03;;;0.70;1.00;;;;;;5102771;27;20239;-75
2024/03/18 06:05:24;;;;;;;7.60;6.90;;;0.80;1.00;;;;;;5104375;27;20255;-74
2024/03/18 06:07:51;;;;;;;5.53;5.13;;;0.90;1.00;;;;;;5108110;27;20343;-72
2024/03/18 06:10:18;;;;;;;5.07;4.10;;;0.90;1.00;;;;;;5099729;27;20275;-70
2024/03/18 06:12:45;;;;;;;4.40;4.00;;;1.00;1.00;;;;;;5095310;27;20228;-73
2024/03/18 06:15:13;;;;;;;7.60;5.65;;;1.10;1.00;;;;;;5087885;28;20272;-71
2024/03/18 06:17:40;;;;;;;4.60;4.20;;;1.20;1.00;;;;;;5087187;27;20259;-70
2024/03/18 06:20:10;;;;;;;4.95;4.45;;;1.20;1.00;;;;;;5086249;28;20311;-70
2024/03/18 06:22:39;;;;;;;8.35;4.70;;;1.30;1.00;;;;;;5088003;28;20236;-70
2024/03/18 06:27:51;;;;;;;7.93;4.03;;;1.40;1.00;;;;;;5093948;27;20282;-73
2024/03/18 06:30:18;;;;;;;4.57;4.18;;;1.40;1.00;;;;;;5086950;28;20236;-70
2024/03/18 06:32:45;;;;;;;4.60;3.35;;;1.50;1.00;;;;;;5085681;28;20263;-72
2024/03/18 06:35:12;;;;;;;7.35;3.80;;;1.60;1.00;;;;;;5089138;28;20960;-72
2024/03/18 06:37:40;;;;;;;13.15;5.25;;;1.70;1.00;;;;;;5090232;28;20266;-70
2024/03/18 06:40:11;;;;;;;5.05;3.67;;;1.80;1.00;;;;;;5088461;28;20735;-70
2024/03/18 06:42:38;;;;;;;6.07;4.20;;;1.80;1.00;;;;;;5088633;28;20259;-71
2024/03/18 06:45:07;;;;;;;7.28;3.20;;;1.90;1.00;;;;;;5100150;27;20336;-72
2024/03/18 06:47:35;;;;;;;3.45;3.15;;;1.90;1.00;;;;;;5090985;28;20326;-72
2024/03/18 06:50:02;;;;;;;7.03;4.18;;;2.00;1.00;;;;;;5092947;28;20313;-71
2024/03/18 06:52:29;;;;;;;5.05;3.42;;;2.00;1.00;;;;;;5089249;28;20236;-72
2024/03/18 06:54:59;;;;;;;6.10;4.28;;;2.10;1.00;;;;;;5088492;28;20235;-72
2024/03/18 06:57:27;;;;;;;4.03;3.63;;;2.10;1.00;;;;;;5096761;27;20240;-71
2024/03/18 06:59:54;;;;;;;5.70;3.50;;;2.20;1.00;;;;;;5090642;28;20246;-71
2024/03/18 07:02:21;;;;;;;5.25;4.25;;;2.20;1.00;;;;;;5091184;28;20290;-71
2024/03/18 07:04:48;;;;;;;4.85;2.97;;;2.10;1.00;;;;;;5086913;27;20239;-77
2024/03/18 07:07:15;;;;;;;4.38;3.45;;;2.20;1.00;;;;;;5088005;28;20322;-75
2024/03/18 07:09:42;;;;;;;5.18;2.95;;;2.40;1.00;;;;;;5088251;28;20265;-78
2024/03/18 07:12:10;;;;;;;5.10;3.13;;;2.50;1.00;;;;;;5079536;28;20248;-74
2024/03/18 07:14:42;;;;;;;3.90;3.35;;;2.70;1.00;;;;;;5088762;28;20347;-75
2024/03/18 07:17:09;;;;;;;5.60;3.28;;;2.80;1.00;;;;;;5088995;27;20231;-76
2024/03/18 07:19:36;;;;;;;3.50;2.70;;;2.90;1.00;;;;;;5092677;28;20235;-75
2024/03/18 07:22:03;;;;;;;5.40;2.90;;;3.00;1.00;;;;;;5090524;28;20272;-75
2024/03/18 07:24:30;;;;;;;3.33;2.80;;;3.20;1.00;;;;;;5099793;27;20277;-75
2024/03/18 07:26:57;;;;;;;3.55;3.25;;;3.20;1.00;;;;;;5090758;27;20244;-76
2024/03/18 07:29:25;;;;;;;3.72;2.90;;;3.20;1.00;;;;;;5087147;28;20379;-74
2024/03/18 07:31:56;;;;;;;4.85;2.97;;;3.40;1.00;;;;;;5091914;28;20285;-73
2024/03/18 07:34:23;;;;;;;6.75;2.90;;;3.60;1.00;;;;;;5086202;27;20253;-75
2024/03/18 07:36:50;;;;;;;2.85;2.42;;;3.60;1.00;;;;;;5092025;28;20264;-74
2024/03/18 07:39:20;;;;;;;2.28;1.80;;;3.70;1.00;;;;;;5080381;28;20796;-72
2024/03/18 07:41:47;;;;;;;3.35;2.42;;;3.80;1.00;;;;;;5086348;28;20926;-72
2024/03/18 07:44:14;;;;;;;3.92;2.60;;;3.80;1.00;;;;;;5095570;27;20235;-74
2024/03/18 07:46:44;;;;;;;3.10;2.80;;;3.70;1.00;;;;;;5097876;27;20232;-74
2024/03/18 07:49:11;;;;;;;6.10;5.30;;;3.80;1.00;;;;;;5088034;28;20235;-74
2024/03/18 07:51:38;;;;;;;4.60;2.92;;;4.00;1.00;;;;;;5108352;27;20239;-72
2024/03/18 07:54:05;;;;;;;3.88;2.03;;;4.10;1.00;;;;;;5109654;27;20322;-74
2024/03/18 07:56:32;;;;;;;5.72;1.85;;;4.30;1.00;;;;;;5092657;28;20240;-75
2024/03/18 07:58:59;;;;;;;1.90;1.80;;;4.40;1.00;;;;;;5092556;28;20235;-73
2024/03/18 08:01:26;;;;;;;3.08;1.85;;;4.60;1.00;;;;;;5094158;27;20240;-74
2024/03/18 08:03:56;;;;;;;5.28;2.20;;;4.70;1.00;;;;;;5113523;27;20249;-73
2024/03/18 08:06:23;;;;;;;8.25;2.25;;;4.90;1.00;;;;;;5110009;27;20672;-71
2024/03/18 08:08:50;;;;;;;5.20;2.50;;;5.10;1.00;;;;;;5110651;27;20246;-73
2024/03/18 08:11:17;;;;;;;2.40;1.80;;;5.20;1.00;;;;;;5104400;27;21042;-73
2024/03/18 08:13:44;;;;;;;4.82;1.48;;;5.00;1.00;;;;;;5096757;27;20341;-71
2024/03/18 08:16:10;;;;;;;4.05;1.85;;;5.00;1.00;;;;;;5109750;27;20242;-72
2024/03/18 08:18:37;;;;;;;1.60;1.50;;;5.20;1.00;;;;;;5107535;27;20235;-74
2024/03/18 08:21:05;;;;;;;2.33;1.48;;;5.30;1.00;;;;;;5111316;27;20346;-70
2024/03/18 08:23:33;;;;;;;1.50;1.23;;;5.40;1.00;;;;;;5111648;27;20305;-73
2024/03/18 08:26:00;;;;;;;1.40;1.30;;;5.50;1.00;;;;;;5105510;27;20240;-71
2024/03/18 08:28:26;;;;;;;2.55;1.63;;;5.60;1.00;;;;;;5099865;27;20239;-73
2024/03/18 08:30:55;;;;;;;3.35;1.50;;;5.60;1.00;;;;;;5090946;28;20232;-70
2024/03/18 08:33:22;;;;;;;1.35;1.00;;;5.80;1.00;;;;;;5094657;27;20936;-71
2024/03/18 08:35:51;;;;;;;3.67;1.20;;;5.80;1.00;;;;;;5105365;27;20271;-74
2024/03/18 08:38:19;;;;;;;1.55;1.17;;;5.80;1.00;;;;;;5098646;27;20442;-71
2024/03/18 08:40:53;;;;;;;2.40;1.25;;;5.80;1.00;;;;;;5089911;28;20295;-73
2024/03/18 08:43:20;;;;;;;3.63;1.50;;;5.90;1.00;;;;;;5084328;28;20236;-71
2024/03/18 08:45:52;;;;;;;3.20;2.03;;;6.10;1.00;;;;;;5090778;28;20322;-71
2024/03/18 08:48:19;;;;;;;3.38;1.25;;;6.20;1.00;;;;;;5090070;28;20251;-70
2024/03/18 08:50:46;;;;;;;3.20;1.13;;;6.30;1.00;;;;;;5090349;28;20341;-72
2024/03/18 08:53:14;;;;;;;3.65;1.25;;;6.40;1.00;;;;;;5085345;28;20905;-74
2024/03/18 08:55:47;;;;;;;4.40;2.42;;;6.20;1.00;;;;;;5080746;28;20244;-73
2024/03/18 08:58:14;;;;;;;1.95;1.10;;;6.30;1.00;;;;;;5089768;28;20233;-75
2024/03/18 09:00:41;;;;;;;3.03;1.23;;;6.40;1.00;;;;;;5089274;28;21035;-74
2024/03/18 09:03:09;;;;;;;1.17;0.90;;;6.60;1.00;;;;;;5080239;28;20305;-73
2024/03/18 09:05:36;;;;;;;1.85;1.67;;;6.50;1.00;;;;;;5088105;27;20241;-72
2024/03/18 09:08:04;;;;;;;1.60;0.88;;;6.60;1.00;;;;;;5088401;27;20260;-73
2024/03/18 09:10:31;;;;;;;2.72;1.65;;;6.60;1.00;;;;;;5091263;28;20290;-72
2024/03/18 09:13:00;;;;;;;1.40;1.00;;;6.70;1.00;;;;;;5086680;28;20241;-70
2024/03/18 09:15:28;;;;;;;4.90;3.65;;;6.90;1.00;;;;;;5091194;28;20276;-73
2024/03/18 09:17:55;;;;;;;5.57;1.98;;;7.20;1.00;;;;;;5090755;28;20240;-70
2024/03/18 09:20:21;;;;;;;1.50;0.90;;;7.50;1.00;;;;;;5091287;28;20239;-70
2024/03/18 09:22:48;;;;;;;2.27;1.37;;;8.30;1.00;;;;;;5091021;28;20972;-75
2024/03/18 09:25:16;;;;;;;2.00;1.40;;;9.90;1.00;;;;;;5094174;28;20550;-74
2024/03/18 09:27:43;;;;;;;4.63;1.80;;;11.50;1.00;;;;;;5093579;28;20563;-73
2024/03/18 09:30:12;;;;;;;1.37;1.23;;;12.80;1.00;;;;;;5089838;28;20445;-74
2024/03/18 09:32:38;;;;;;;4.30;1.30;;;13.70;1.00;;;;;;5096474;28;20565;-75
2024/03/18 09:35:07;;;;;;;2.23;1.03;;;14.30;1.00;;;;;;5089628;28;20486;-76
2024/03/18 09:37:34;;;;;;;2.33;1.10;;;14.20;1.00;;;;;;5089810;28;20464;-75
2024/03/18 09:40:01;;;;;;;2.00;1.20;;;14.60;1.00;;;;;;5089437;27;20511;-73
2024/03/18 09:42:29;;;;;;;3.57;1.40;;;15.20;1.00;;;;;;5093111;28;20526;-75
2024/03/18 09:44:56;;;;;;;2.13;1.07;;;15.90;1.00;;;;;;5098717;27;20460;-74
2024/03/18 09:47:25;;;;;;;2.07;1.03;;;16.10;1.00;;;;;;5090382;28;20494;-73
2024/03/18 09:49:53;;;;;;;1.10;1.00;;;16.60;1.00;;;;;;5090861;28;20463;-73
2024/03/18 09:52:21;;;;;;;1.20;0.87;;;17.30;1.00;;;;;;5091291;28;20478;-75
2024/03/18 09:54:50;;;;;;;4.07;1.93;;;17.40;1.00;;;;;;5092434;28;20510;-75
2024/03/18 09:57:24;;;;;;;1.83;1.20;;;17.30;1.00;;;;;;5089182;28;20869;-73
2024/03/18 09:59:51;;;;;;;2.63;1.10;;;17.70;1.00;;;;;;5088579;28;20475;-75
2024/03/18 10:02:18;;;;;;;1.77;0.90;;;18.40;1.00;;;;;;5089320;28;20516;-74
2024/03/18 10:04:47;;;;;;;2.00;0.93;;;18.60;1.00;;;;;;5092996;27;20548;-73
2024/03/18 10:07:16;;;;;;;4.73;1.00;;;18.70;1.00;;;;;;5100624;27;20462;-73
2024/03/18 10:09:45;;;;;;;3.80;1.77;;;19.00;1.00;;;;;;5088148;28;20563;-78
2024/03/18 10:12:16;;;;;;;2.50;1.03;;;19.60;1.00;;;;;;5091240;28;20504;-75
2024/03/18 10:14:43;;;;;;;3.47;2.30;;;20.00;1.00;;;;;;5092397;28;20895;-74
2024/03/18 10:17:14;;;;;;;1.30;1.20;;;19.80;1.00;;;;;;5091262;27;21233;-75
2024/03/18 10:19:41;;;;;;;1.93;1.77;;;19.60;1.00;;;;;;5093115;28;20467;-74
2024/03/18 10:22:11;;;;;;;1.53;1.00;;;19.10;1.00;;;;;;5089675;28;21046;-75
2024/03/18 10:24:40;;;;;;;5.90;2.63;;;19.10;1.00;;;;;;5099068;27;20975;-74
2024/03/18 10:27:08;;;;;;;1.90;1.03;;;19.10;1.00;;;;;;5089689;28;20463;-76
2024/03/18 10:29:35;;;;;;;6.57;2.37;;;19.90;1.00;;;;;;5091549;28;20466;-76
2024/03/18 10:32:04;;;;;;;1.47;1.00;;;19.60;1.00;;;;;;5088415;28;21001;-75
2024/03/18 10:34:36;;;;;;;3.47;1.10;;;20.00;1.00;;;;;;5091934;28;20603;-72
2024/03/18 10:37:04;;;;;;;1.10;1.00;;;20.90;1.00;;;;;;5089154;28;20449;-71
2024/03/18 10:39:41;;;;;;;2.23;1.00;;;21.20;1.00;;;;;;5091485;28;20475;-73
2024/03/18 10:42:15;;;;;;;1.70;0.90;;;21.00;1.00;;;;;;5090371;28;20482;-72
2024/03/18 10:44:49;;;;;;;3.03;1.30;;;20.80;1.00;;;;;;5098959;27;20459;-73
2024/03/18 10:47:18;;;;;;;1.83;1.00;;;20.30;1.00;;;;;;5106645;27;20473;-73
2024/03/18 10:49:45;;;;;;;4.30;1.40;;;19.80;1.00;;;;;;5111666;27;20469;-74
2024/03/18 10:52:13;;;;;;;1.70;1.00;;;20.00;1.00;;;;;;5111010;27;20461;-72
2024/03/18 10:54:41;;;;;;;1.63;1.20;;;20.70;1.00;;;;;;5110203;27;21671;-72
2024/03/18 10:57:10;;;;;;;2.50;1.23;;;20.60;1.00;;;;;;5093646;28;20453;-74
2024/03/18 10:59:38;;;;;;;1.80;1.17;;;20.60;1.00;;;;;;5089514;27;20474;-71
2024/03/18 11:02:08;;;;;;;3.80;1.53;;;21.20;1.00;;;;;;5091488;27;20469;-71
2024/03/18 11:04:40;;;;;;;6.23;1.60;;;21.50;1.00;;;;;;5089707;28;20550;-70
2024/03/18 11:07:08;;;;;;;1.93;1.10;;;21.10;1.00;;;;;;5090397;28;20932;-74
2024/03/18 11:09:38;;;;;;;1.70;1.23;;;21.20;1.00;;;;;;5086989;28;20457;-71
2024/03/18 11:12:29;;;;;;;8.00;2.60;;;21.80;1.00;;;;;;5099577;27;21005;-71
2024/03/18 11:15:05;;;;;;;1.60;1.30;;;22.30;1.00;;;;;;5092281;28;20466;-72
2024/03/18 11:17:32;;;;;;;2.70;1.43;;;22.20;1.00;;;;;;5090002;28;21117;-72
2024/03/18 11:19:59;;;;;;;3.30;1.40;;;21.60;1.00;;;;;;5099902;27;20560;-73
2024/03/18 11:22:26;;;;;;;2.50;0.90;;;21.90;1.00;;;;;;5091393;28;20534;-71
2024/03/18 11:24:54;;;;;;;1.33;1.20;;;21.50;1.00;;;;;;5087789;28;20488;-71
2024/03/18 11:27:23;;;;;;;2.17;1.27;;;21.60;1.00;;;;;;5100636;27;20455;-71
2024/03/18 11:29:52;;;;;;;3.17;1.50;;;21.40;1.00;;;;;;5102721;27;20459;-74
2024/03/18 11:32:22;;;;;;;2.43;1.47;;;21.30;1.00;;;;;;5111675;27;20482;-71
2024/03/18 11:34:58;;;;;;;3.77;1.67;;;21.40;1.00;;;;;;5101565;27;20463;-74
2024/03/18 11:37:28;;;;;;;2.43;1.23;;;21.40;1.00;;;;;;5112037;27;20506;-72
2024/03/18 11:39:57;;;;;;;2.93;1.40;;;21.60;1.00;;;;;;5111901;27;20440;-71
2024/03/18 11:42:26;;;;;;;2.07;1.53;;;21.70;1.00;;;;;;5097422;27;20534;-72
2024/03/18 11:44:52;;;;;;;7.40;1.93;;;21.80;1.00;;;;;;5091669;28;20472;-76
2024/03/18 11:47:20;;;;;;;1.67;1.20;;;22.30;1.00;;;;;;5089569;28;20461;-75
2024/03/18 11:49:48;;;;;;;3.60;1.30;;;22.30;1.00;;;;;;5094152;27;20559;-75
2024/03/18 11:52:15;;;;;;;3.33;1.37;;;21.60;1.00;;;;;;5101375;27;20563;-75
2024/03/18 11:54:42;;;;;;;2.60;1.20;;;21.60;1.00;;;;;;5108436;27;20995;-76
2024/03/18 11:57:12;;;;;;;1.37;1.23;;;21.50;1.00;;;;;;5107297;27;20983;-75
2024/03/18 11:59:41;;;;;;;0.87;0.83;;;21.70;1.00;;;;;;5094740;27;20454;-75
2024/03/18 12:02:10;;;;;;;3.90;1.87;;;21.90;1.00;;;;;;5114066;27;20567;-76
2024/03/18 12:04:37;;;;;;;1.00;0.80;;;22.40;1.00;;;;;;5111065;27;20452;-75
2024/03/18 12:07:07;;;;;;;2.17;1.13;;;22.30;1.00;;;;;;5108580;27;21364;-75
2024/03/18 12:09:35;;;;;;;2.50;1.33;;;22.50;1.00;;;;;;5108456;27;20472;-74
2024/03/18 12:12:02;;;;;;;5.53;2.27;;;22.80;1.00;;;;;;5106353;27;21056;-75
2024/03/18 12:14:31;;;;;;;5.00;1.50;;;22.50;1.00;;;;;;5095318;28;20461;-75
2024/03/18 12:17:02;;;;;;;4.20;1.70;;;22.80;1.00;;;;;;5086052;28;20486;-75
2024/03/18 12:19:30;;;;;;;2.40;1.40;;;23.90;1.00;;;;;;5092418;28;20468;-75
2024/03/18 12:21:57;;;;;;;2.13;1.30;;;24.50;1.00;;;;;;5089044;28;20468;-75
2024/03/18 12:29:58;;;;;;;4.73;1.30;;;24.20;1.00;;;;;;5091019;27;20451;-75
2024/03/18 12:32:30;;;;;;;1.50;1.40;;;24.50;1.00;;;;;;5089189;28;20516;-75
2024/03/18 12:34:59;;;;;;;2.83;1.13;;;25.70;1.00;;;;;;5085332;28;20456;-74
2024/03/18 12:37:29;;;;;;;2.30;1.30;;;26.90;1.00;;;;;;5088855;28;20460;-74
2024/03/18 12:39:56;;;;;;;2.10;1.27;;;26.40;1.00;;;;;;5101065;27;20531;-75
2024/03/18 12:42:23;;;;;;;3.87;1.07;;;25.80;1.00;;;;;;5101159;27;20512;-73
2024/03/18 12:44:50;;;;;;;2.20;1.17;;;25.60;1.00;;;;;;5111459;27;20487;-74
2024/03/18 12:47:17;;;;;;;1.30;1.20;;;25.50;1.00;;;;;;5115094;27;20467;-77
2024/03/18 12:49:45;;;;;;;1.23;1.13;;;25.50;1.00;;;;;;5113966;27;20995;-73
2024/03/18 12:52:13;;;;;;;1.40;1.10;;;24.90;1.00;;;;;;5109850;27;20471;-74
2024/03/18 12:54:39;;;;;;;2.17;1.10;;;23.90;1.00;;;;;;5113958;27;20454;-73
2024/03/18 12:57:06;;;;;;;3.23;1.53;;;22.60;1.00;;;;;;5111637;27;20873;-74
2024/03/18 12:59:33;;;;;;;1.20;1.10;;;21.40;1.00;;;;;;5107730;27;21070;-75
2024/03/18 13:02:01;;;;;;;3.37;1.33;;;20.60;1.00;;;;;;5093740;27;20977;-76
2024/03/18 13:04:28;;;;;;;1.87;1.20;;;20.80;1.00;;;;;;5087768;28;20431;-76
2024/03/18 13:06:59;;;;;;;3.57;1.50;;;20.80;1.00;;;;;;5086589;28;20552;-75
2024/03/18 13:09:27;;;;;;;3.50;1.83;;;20.80;1.00;;;;;;5088819;28;20487;-76
2024/03/18 13:11:55;;;;;;;10.40;2.70;;;21.20;1.00;;;;;;5088862;28;20472;-76
2024/03/18 13:14:23;;;;;;;2.60;1.83;;;21.30;1.00;;;;;;5091810;28;20510;-76